createdAt,value
2023-05-24T00:01:57.037Z,12.33
2023-05-24T00:04:29.484Z,11.00
2023-05-24T00:07:01.762Z,14.47
2023-05-24T00:09:35.799Z,9.00
2023-05-24T00:12:06.897Z,10.75
2023-05-24T00:14:38.085Z,20.07
2023-05-24T00:17:08.742Z,8.03
2023-05-24T00:19:39.386Z,14.23
2023-05-24T00:22:09.915Z,11.57
2023-05-24T00:24:42.183Z,12.63
2023-05-24T00:27:12.719Z,20.43
2023-05-24T00:29:43.375Z,20.13
2023-05-24T00:32:13.992Z,17.43
2023-05-24T00:34:45.773Z,15.27
2023-05-24T00:37:16.349Z,12.30
2023-05-24T00:39:46.813Z,12.37
2023-05-24T00:42:19.119Z,12.37
2023-05-24T00:44:49.745Z,12.10
2023-05-24T00:47:20.652Z,14.87
2023-05-24T00:49:51.241Z,15.97
2023-05-24T00:52:22.278Z,14.90
2023-05-24T00:54:53.056Z,13.60
2023-05-24T00:57:25.153Z,11.13
2023-05-24T00:59:57.439Z,15.80
2023-05-24T01:02:28.024Z,12.30
2023-05-24T01:05:00.082Z,8.30
2023-05-24T01:07:39.787Z,19.27
2023-05-24T01:10:22.047Z,14.07
2023-05-24T01:13:04.680Z,14.37
2023-05-24T01:15:59.965Z,14.27
2023-05-24T01:18:37.129Z,12.43
2023-05-24T01:21:19.319Z,17.37
2023-05-24T01:24:10.870Z,12.80
2023-05-24T01:26:56.661Z,15.23
2023-05-24T01:29:29.537Z,16.97
2023-05-24T01:32:02.028Z,22.93
2023-05-24T01:34:33.711Z,24.77
2023-05-24T01:37:04.794Z,24.00
2023-05-24T01:39:35.331Z,22.23
2023-05-24T01:42:27.207Z,24.18
2023-05-24T01:45:17.278Z,12.33
2023-05-24T01:48:12.326Z,7.73
2023-05-24T01:50:46.312Z,10.70
2023-05-24T01:53:20.514Z,12.53
2023-05-24T01:55:54.245Z,10.72
2023-05-24T01:58:27.086Z,10.38
2023-05-24T02:00:59.625Z,9.57
2023-05-24T02:03:33.153Z,8.73
2023-05-24T02:06:03.756Z,18.35
2023-05-24T02:08:34.341Z,11.07
2023-05-24T02:11:04.912Z,11.30
2023-05-24T02:13:35.533Z,10.07
2023-05-24T02:16:06.367Z,11.88
2023-05-24T02:18:37.103Z,12.25
2023-05-24T02:21:07.867Z,10.37
2023-05-24T02:23:38.381Z,9.20
2023-05-24T02:26:10.623Z,12.13
2023-05-24T02:28:41.866Z,8.18
2023-05-24T02:31:13.128Z,9.43
2023-05-24T02:33:43.883Z,8.45
2023-05-24T02:36:14.698Z,13.88
2023-05-24T02:38:45.343Z,13.60
2023-05-24T02:41:19.960Z,7.90
2023-05-24T02:43:50.623Z,14.00
2023-05-24T02:46:21.376Z,11.33
2023-05-24T02:48:51.993Z,11.00
2023-05-24T02:51:22.582Z,15.53
2023-05-24T02:53:53.381Z,13.30
2023-05-24T02:56:24.205Z,9.23
2023-05-24T02:58:55.652Z,11.38
2023-05-24T03:01:26.337Z,13.03
2023-05-24T03:03:57.139Z,13.83
2023-05-24T03:06:27.980Z,15.05
2023-05-24T03:08:59.272Z,15.93
2023-05-24T03:11:29.811Z,11.35
2023-05-24T03:14:00.320Z,11.25
2023-05-24T03:16:31.963Z,14.00
2023-05-24T03:19:02.751Z,12.88
2023-05-24T03:21:33.605Z,12.17
2023-05-24T03:24:04.334Z,13.43
2023-05-24T03:26:35.051Z,13.43
2023-05-24T03:29:07.112Z,15.30
2023-05-24T03:31:37.862Z,15.72
2023-05-24T03:34:08.612Z,11.45
2023-05-24T03:36:39.223Z,13.78
2023-05-24T03:39:10.036Z,14.03
2023-05-24T03:41:40.593Z,11.90
2023-05-24T03:44:11.870Z,12.27
2023-05-24T03:46:42.998Z,12.20
2023-05-24T03:49:13.617Z,16.70
2023-05-24T03:51:45.781Z,18.25
2023-05-24T03:54:19.123Z,12.47
2023-05-24T03:56:49.760Z,12.33
2023-05-24T03:59:21.705Z,14.50
2023-05-24T04:01:52.254Z,12.67
2023-05-24T04:04:23.087Z,10.70
2023-05-24T04:06:56.233Z,8.98
2023-05-24T04:09:26.852Z,13.28
2023-05-24T04:11:59.094Z,10.73
2023-05-24T04:14:29.625Z,12.10
2023-05-24T04:17:02.411Z,12.47
2023-05-24T04:19:35.523Z,16.73
2023-05-24T04:22:06.197Z,10.95
2023-05-24T04:24:39.333Z,14.03
2023-05-24T04:27:10.856Z,11.28
2023-05-24T04:29:42.196Z,13.10
2023-05-24T04:32:14.538Z,11.57
2023-05-24T04:34:46.298Z,12.20
2023-05-24T04:37:17.285Z,15.45
2023-05-24T04:39:49.297Z,13.97
2023-05-24T04:42:20.369Z,15.97
2023-05-24T04:44:51.026Z,15.73
2023-05-24T04:47:21.660Z,15.07
2023-05-24T04:49:52.220Z,13.08
2023-05-24T04:52:22.842Z,12.33
2023-05-24T04:54:54.832Z,13.25
2023-05-24T04:57:25.345Z,17.43
2023-05-24T04:59:56.177Z,13.27
2023-05-24T05:02:27.306Z,15.08
2023-05-24T05:04:59.127Z,14.77
2023-05-24T05:07:31.210Z,15.20
2023-05-24T05:10:02.071Z,12.80
2023-05-24T05:12:34.221Z,17.17
2023-05-24T05:15:05.194Z,19.35
2023-05-24T05:17:37.179Z,15.20
2023-05-24T05:20:10.676Z,14.95
2023-05-24T05:22:42.901Z,17.32
2023-05-24T05:25:13.641Z,20.87
2023-05-24T05:27:44.877Z,22.50
2023-05-24T05:30:16.078Z,20.90
2023-05-24T05:32:47.015Z,12.07
2023-05-24T05:35:19.297Z,20.97
2023-05-24T05:37:49.749Z,15.25
2023-05-24T05:40:20.943Z,16.57
2023-05-24T05:42:53.868Z,15.07
2023-05-24T05:45:25.885Z,15.18
2023-05-24T05:47:58.980Z,14.23
2023-05-24T05:50:29.848Z,18.10
2023-05-24T05:53:00.416Z,15.80
2023-05-24T05:55:31.181Z,15.88
2023-05-24T05:58:03.944Z,17.45
2023-05-24T06:00:34.717Z,16.62
2023-05-24T06:03:05.407Z,19.50
2023-05-24T06:05:36.476Z,18.87
2023-05-24T06:08:07.221Z,20.40
2023-05-24T06:10:38.248Z,13.35
2023-05-24T06:13:08.963Z,19.12
2023-05-24T06:15:40.552Z,14.45
2023-05-24T06:18:11.013Z,15.28
2023-05-24T06:20:44.986Z,18.48
2023-05-24T06:23:16.407Z,21.60
2023-05-24T06:25:48.553Z,15.53
2023-05-24T06:28:20.771Z,20.65
2023-05-24T06:30:51.798Z,15.58
2023-05-24T06:33:22.672Z,18.40
2023-05-24T06:35:53.463Z,18.52
2023-05-24T06:38:25.450Z,19.92
2023-05-24T06:40:56.056Z,20.70
2023-05-24T06:43:28.183Z,16.35
2023-05-24T06:45:58.694Z,19.05
2023-05-24T06:48:29.763Z,17.07
2023-05-24T06:51:01.642Z,23.22
2023-05-24T06:53:35.622Z,17.75
2023-05-24T06:56:07.794Z,17.70
2023-05-24T06:58:38.464Z,20.43
2023-05-24T07:01:09.473Z,18.32
2023-05-24T07:03:39.983Z,18.12
2023-05-24T07:06:12.308Z,21.42
2023-05-24T07:08:43.183Z,18.17
2023-05-24T07:11:15.268Z,19.73
2023-05-24T07:13:45.874Z,20.70
2023-05-24T07:16:16.441Z,16.62
2023-05-24T07:18:47.152Z,15.88
2023-05-24T07:21:17.810Z,15.97
2023-05-24T07:23:49.200Z,16.02
2023-05-24T07:26:19.973Z,20.08
2023-05-24T07:28:51.946Z,16.37
2023-05-24T07:31:23.087Z,17.65
2023-05-24T07:33:53.629Z,15.50
2023-05-24T07:36:28.954Z,20.48
2023-05-24T07:39:01.447Z,19.27
2023-05-24T07:41:33.438Z,20.65
2023-05-24T07:44:04.984Z,17.90
2023-05-24T07:46:35.572Z,17.85
2023-05-24T07:49:07.805Z,16.77
2023-05-24T07:51:39.104Z,17.62
2023-05-24T07:54:09.742Z,17.60
2023-05-24T07:56:40.323Z,17.98
2023-05-24T07:59:10.840Z,21.25
2023-05-24T08:01:41.433Z,19.42
2023-05-24T08:04:12.204Z,17.02
2023-05-24T08:06:43.096Z,16.67
2023-05-24T08:09:13.848Z,19.42
2023-05-24T08:11:45.487Z,15.72
2023-05-24T08:14:16.258Z,17.17
2023-05-24T08:16:47.094Z,18.73
2023-05-24T08:19:17.948Z,17.12
2023-05-24T08:21:48.726Z,15.88
2023-05-24T08:24:19.408Z,17.95
2023-05-24T08:26:52.968Z,18.50
2023-05-24T08:29:24.308Z,19.98
2023-05-24T08:31:54.943Z,18.48
2023-05-24T08:34:25.516Z,18.27
2023-05-24T08:36:56.142Z,14.35
2023-05-24T08:42:32.517Z,14.25
2023-05-24T08:45:12.450Z,18.35
2023-05-24T08:47:43.846Z,13.35
2023-05-24T08:50:14.517Z,17.48
2023-05-24T08:52:46.758Z,13.15
2023-05-24T08:55:17.990Z,14.73
2023-05-24T08:57:49.631Z,17.48
2023-05-24T09:00:21.076Z,14.43
2023-05-24T09:02:51.704Z,13.15
2023-05-24T09:05:22.834Z,11.28
2023-05-24T09:07:55.760Z,15.20
2023-05-24T09:13:01.572Z,13.32
2023-05-24T09:15:32.344Z,19.02
2023-05-24T09:18:04.630Z,16.93
2023-05-24T09:20:35.832Z,14.28
2023-05-24T09:23:08.629Z,13.70
2023-05-24T09:25:47.342Z,17.80
2023-05-24T09:28:21.716Z,13.03
2023-05-24T09:31:07.344Z,14.98
2023-05-24T09:33:36.569Z,16.57
2023-05-24T09:36:07.651Z,11.85
2023-05-24T09:38:38.332Z,15.43
2023-05-24T09:41:11.033Z,11.22
2023-05-24T09:43:52.035Z,12.03
2023-05-24T09:46:25.641Z,12.58
2023-05-24T09:49:00.449Z,11.88
2023-05-24T09:51:32.514Z,13.58
2023-05-24T09:54:04.108Z,14.95
2023-05-24T09:56:35.284Z,14.28
2023-05-24T09:59:09.951Z,12.47
2023-05-24T10:01:40.830Z,11.83
2023-05-24T10:04:12.547Z,13.95
2023-05-24T10:06:45.342Z,14.30
2023-05-24T10:09:16.777Z,15.98
2023-05-24T10:11:47.311Z,13.93
2023-05-24T10:14:22.321Z,13.80
2023-05-24T10:16:53.108Z,13.85
2023-05-24T10:19:24.146Z,12.75
2023-05-24T10:21:57.859Z,10.28
2023-05-24T10:24:37.560Z,11.38
2023-05-24T10:27:11.349Z,11.68
2023-05-24T10:30:09.498Z,11.50
2023-05-24T10:32:41.412Z,11.57
2023-05-24T10:35:14.785Z,12.13
2023-05-24T10:37:47.952Z,13.10
2023-05-24T10:40:20.826Z,11.83
2023-05-24T10:42:51.875Z,9.48
2023-05-24T10:45:37.231Z,9.23
2023-05-24T10:48:17.034Z,8.13
2023-05-24T10:50:48.079Z,10.32
2023-05-24T10:53:20.411Z,5.67
2023-05-24T10:56:01.820Z,7.75
2023-05-24T10:58:58.340Z,10.72
2023-05-24T11:01:31.872Z,7.45
2023-05-24T11:04:21.428Z,8.83
2023-05-24T11:07:01.456Z,8.10
2023-05-24T11:09:33.989Z,10.03
2023-05-24T11:12:11.249Z,9.55
2023-05-24T11:14:42.483Z,8.88
2023-05-24T11:17:13.150Z,8.33
2023-05-24T11:19:52.882Z,9.03
2023-05-24T11:22:27.455Z,7.47
2023-05-24T11:25:00.017Z,9.55
2023-05-24T11:27:33.178Z,7.97
2023-05-24T11:30:06.003Z,6.08
2023-05-24T11:32:38.783Z,8.30
2023-05-24T11:35:11.729Z,7.40
2023-05-24T11:37:46.762Z,7.30
2023-05-24T11:40:17.429Z,16.40
2023-05-24T11:42:48.249Z,6.25
2023-05-24T11:45:19.608Z,7.20
2023-05-24T11:47:51.714Z,6.97
2023-05-24T11:50:28.466Z,11.38
2023-05-24T11:53:04.836Z,8.35
2023-05-24T11:55:35.471Z,6.30
2023-05-24T11:58:11.165Z,9.30
2023-05-24T12:00:44.603Z,5.78
2023-05-24T12:03:17.446Z,8.40
2023-05-24T12:05:49.308Z,6.83
2023-05-24T12:08:20.510Z,7.83
2023-05-24T12:10:51.858Z,8.43
2023-05-24T12:13:24.814Z,6.35
2023-05-24T12:15:56.859Z,10.13
2023-05-24T12:18:27.825Z,7.60
2023-05-24T12:21:00.016Z,9.43
2023-05-24T12:23:32.204Z,8.05
2023-05-24T12:26:04.015Z,6.65
2023-05-24T12:28:39.123Z,9.25
2023-05-24T12:31:10.540Z,6.87
2023-05-24T12:33:41.488Z,8.28
2023-05-24T12:36:14.153Z,8.63
2023-05-24T12:38:45.936Z,8.10
2023-05-24T12:41:17.493Z,7.55
2023-05-24T12:43:48.066Z,8.33
2023-05-24T12:46:19.713Z,7.60
2023-05-24T12:48:52.071Z,7.35
2023-05-24T12:51:26.801Z,7.60
2023-05-24T12:53:58.369Z,9.90
2023-05-24T12:56:29.478Z,6.95
2023-05-24T12:59:00.834Z,7.95
2023-05-24T13:01:33.828Z,5.67
2023-05-24T13:04:04.719Z,6.35
2023-05-24T13:06:35.510Z,9.20
2023-05-24T13:09:06.424Z,7.80
2023-05-24T13:11:38.549Z,7.83
2023-05-24T13:14:09.346Z,8.80
2023-05-24T13:16:39.993Z,8.18
2023-05-24T13:19:11.660Z,8.33
2023-05-24T13:21:43.033Z,13.00
2023-05-24T13:24:17.431Z,10.98
2023-05-24T13:26:51.578Z,7.20
2023-05-24T13:29:36.732Z,9.03
2023-05-24T13:31:54.778Z,5.45
2023-05-24T13:34:27.402Z,6.90
2023-05-24T13:36:59.950Z,6.80
2023-05-24T13:39:30.683Z,7.72
2023-05-24T13:42:02.499Z,6.65
2023-05-24T13:44:33.122Z,7.75
2023-05-24T13:47:03.689Z,8.15
2023-05-24T13:49:34.595Z,12.05
2023-05-24T13:52:05.344Z,4.97
2023-05-24T13:54:37.019Z,8.03
2023-05-24T13:57:09.060Z,8.50
2023-05-24T13:59:40.429Z,7.12
2023-05-24T14:02:11.995Z,9.35
2023-05-24T14:04:43.294Z,9.08
2023-05-24T14:07:16.024Z,7.80
2023-05-24T14:09:46.950Z,11.43
2023-05-24T14:12:19.281Z,7.75
2023-05-24T14:17:23.307Z,8.15
2023-05-24T14:19:54.003Z,8.88
2023-05-24T14:22:26.236Z,9.38
2023-05-24T14:24:57.117Z,6.20
2023-05-24T14:27:27.956Z,8.08
2023-05-24T14:29:58.605Z,8.50
2023-05-24T14:32:29.300Z,8.35
2023-05-24T14:35:01.153Z,7.90
2023-05-24T14:37:33.205Z,6.53
2023-05-24T14:40:05.585Z,10.98
2023-05-24T14:42:36.285Z,8.30
2023-05-24T14:45:08.029Z,6.70
2023-05-24T14:47:38.539Z,7.90
2023-05-24T14:50:09.698Z,7.58
2023-05-24T14:52:41.865Z,7.40
2023-05-24T14:55:12.831Z,10.55
2023-05-24T14:57:43.784Z,6.80
2023-05-24T15:00:15.390Z,7.50
2023-05-24T15:02:46.162Z,7.42
2023-05-24T15:05:16.922Z,11.65
2023-05-24T15:07:48.251Z,8.85
2023-05-24T15:10:20.161Z,9.28
2023-05-24T15:12:52.050Z,7.17
2023-05-24T15:15:24.544Z,6.92
2023-05-24T15:17:59.628Z,7.10
2023-05-24T15:20:35.532Z,8.13
2023-05-24T15:23:02.926Z,7.95
2023-05-24T15:25:33.505Z,8.50
2023-05-24T15:28:04.065Z,6.58
2023-05-24T15:30:34.984Z,8.18
2023-05-24T15:33:06.310Z,7.30
2023-05-24T15:35:37.780Z,8.85
2023-05-24T15:38:08.645Z,8.53
2023-05-24T15:40:41.901Z,8.08
2023-05-24T15:43:13.083Z,8.35
2023-05-24T15:45:48.181Z,7.85
2023-05-24T15:48:18.925Z,7.90
2023-05-24T15:51:22.573Z,6.90
2023-05-24T15:53:24.906Z,8.48
2023-05-24T15:55:57.449Z,5.83
2023-05-24T15:58:28.126Z,8.03
2023-05-24T16:00:58.919Z,7.87
2023-05-24T16:03:29.505Z,6.12
2023-05-24T16:06:00.255Z,9.08
2023-05-24T16:08:32.441Z,6.40
2023-05-24T16:11:04.662Z,5.10
2023-05-24T16:13:36.108Z,6.90
2023-05-24T16:16:07.334Z,7.97
2023-05-24T16:18:38.008Z,8.03
2023-05-24T16:21:08.525Z,8.88
2023-05-24T16:23:38.953Z,7.37
2023-05-24T16:26:11.558Z,8.35
2023-05-24T16:28:42.058Z,7.05
2023-05-24T16:31:12.521Z,9.20
2023-05-24T16:33:43.185Z,11.95
2023-05-24T16:36:14.173Z,6.30
2023-05-24T16:38:44.885Z,6.65
2023-05-24T16:41:18.664Z,5.92
2023-05-24T16:43:49.361Z,5.95
2023-05-24T16:46:19.999Z,6.60
2023-05-24T16:48:50.892Z,6.22
2023-05-24T16:51:21.476Z,5.78
2023-05-24T16:53:52.489Z,7.03
2023-05-24T16:56:25.078Z,7.80
2023-05-24T16:58:56.044Z,7.90
2023-05-24T17:01:26.707Z,7.42
2023-05-24T17:03:57.500Z,5.45
2023-05-24T17:06:28.433Z,9.05
2023-05-24T17:08:59.260Z,6.70
2023-05-24T17:11:29.950Z,6.17
2023-05-24T17:14:01.161Z,7.30
2023-05-24T17:16:31.850Z,6.75
2023-05-24T17:19:03.536Z,8.73
2023-05-24T17:21:37.551Z,6.58
2023-05-24T17:24:08.397Z,5.40
2023-05-24T17:26:41.133Z,9.13
2023-05-24T17:29:11.850Z,7.97
2023-05-24T17:31:42.677Z,9.23
2023-05-24T17:34:15.435Z,7.78
2023-05-24T17:36:46.151Z,8.85
2023-05-24T17:39:17.528Z,8.93
2023-05-24T17:41:48.106Z,7.08
2023-05-24T17:44:18.598Z,8.35
2023-05-24T17:46:50.279Z,6.30
2023-05-24T17:49:21.022Z,6.90
2023-05-24T17:51:51.543Z,5.37
2023-05-24T17:54:22.863Z,6.97
2023-05-24T17:56:56.978Z,6.85
2023-05-24T17:59:27.603Z,10.68
2023-05-24T18:01:58.435Z,9.33
2023-05-24T18:04:29.086Z,6.97
2023-05-24T18:06:59.883Z,7.17
2023-05-24T18:09:30.764Z,8.73
2023-05-24T18:12:01.905Z,6.85
2023-05-24T18:14:33.529Z,9.98
2023-05-24T18:17:04.204Z,7.35
2023-05-24T18:19:34.862Z,10.20
2023-05-24T18:22:07.369Z,12.53
2023-05-24T18:24:39.812Z,11.75
2023-05-24T18:27:10.325Z,7.22
2023-05-24T18:29:40.947Z,10.03
2023-05-24T18:32:11.544Z,7.53
2023-05-24T18:34:43.388Z,9.93
2023-05-24T18:37:14.059Z,8.55
2023-05-24T18:39:44.830Z,7.92
2023-05-24T18:42:18.214Z,9.90
2023-05-24T18:44:48.728Z,8.33
2023-05-24T18:47:19.293Z,8.85
2023-05-24T18:49:52.028Z,7.83
2023-05-24T18:52:24.243Z,10.40
2023-05-24T18:54:56.960Z,9.05
2023-05-24T18:57:35.195Z,11.33
2023-05-24T19:00:09.718Z,8.95
2023-05-24T19:02:44.048Z,9.05
2023-05-24T19:05:16.480Z,7.17
2023-05-24T19:07:48.621Z,8.08
2023-05-24T19:10:19.323Z,7.97
2023-05-24T19:12:50.812Z,10.58
2023-05-24T19:15:25.055Z,10.82
2023-05-24T19:17:57.781Z,7.10
2023-05-24T19:20:29.744Z,8.73
2023-05-24T19:23:00.627Z,10.38
2023-05-24T19:25:31.578Z,8.73
2023-05-24T19:28:02.255Z,7.97
2023-05-24T19:30:34.038Z,9.85
2023-05-24T19:33:05.246Z,9.80
2023-05-24T19:35:37.413Z,10.25
2023-05-24T19:38:09.717Z,8.00
2023-05-24T19:40:40.255Z,10.00
2023-05-24T19:43:10.886Z,8.38
2023-05-24T19:45:41.689Z,9.65
2023-05-24T19:48:13.971Z,9.60
2023-05-24T19:50:45.535Z,12.43
2023-05-24T19:53:18.181Z,9.73
2023-05-24T19:55:50.267Z,8.88
2023-05-24T19:58:23.554Z,11.18
2023-05-24T20:00:54.145Z,10.98
2023-05-24T20:03:25.055Z,10.30
2023-05-24T20:05:55.940Z,9.98
2023-05-24T20:08:28.069Z,10.43
2023-05-24T20:10:59.899Z,8.03
2023-05-24T20:13:30.601Z,11.12
2023-05-24T20:16:01.338Z,10.60
2023-05-24T20:18:33.447Z,6.60
2023-05-24T20:21:04.280Z,10.05
2023-05-24T20:23:34.854Z,11.30
2023-05-24T20:26:05.984Z,10.03
2023-05-24T20:28:38.503Z,10.30
2023-05-24T20:31:09.253Z,9.70
2023-05-24T20:33:40.841Z,10.80
2023-05-24T20:36:11.357Z,12.10
2023-05-24T20:38:42.022Z,9.70
2023-05-24T20:41:12.581Z,10.45
2023-05-24T20:43:43.473Z,10.32
2023-05-24T20:46:15.478Z,11.38
2023-05-24T20:48:48.693Z,8.70
2023-05-24T20:51:21.904Z,10.53
2023-05-24T20:53:53.335Z,9.73
2023-05-24T20:56:24.164Z,11.47
2023-05-24T20:58:57.347Z,11.33
2023-05-24T21:01:28.096Z,9.93
2023-05-24T21:03:58.787Z,9.70
2023-05-24T21:06:31.941Z,9.13
2023-05-24T21:09:02.089Z,8.30
2023-05-24T21:11:32.712Z,9.83
2023-05-24T21:14:04.662Z,8.83
2023-05-24T21:16:35.241Z,9.83
2023-05-24T21:19:06.232Z,12.43
2023-05-24T21:21:37.556Z,8.48
2023-05-24T21:24:09.213Z,14.35
2023-05-24T21:26:39.807Z,10.82
2023-05-24T21:29:13.119Z,9.28
2023-05-24T21:31:43.776Z,8.08
2023-05-24T21:34:14.289Z,12.43
2023-05-24T21:36:44.970Z,9.48
2023-05-24T21:39:16.389Z,9.03
2023-05-24T21:41:47.198Z,10.23
2023-05-24T21:44:17.792Z,10.05
2023-05-24T21:46:49.335Z,11.55
2023-05-24T21:49:25.388Z,8.78
2023-05-24T21:51:57.357Z,9.78
2023-05-24T21:54:28.288Z,9.45
2023-05-24T21:57:01.462Z,10.13
2023-05-24T21:59:32.008Z,13.25
2023-05-24T22:02:02.998Z,11.60
2023-05-24T22:04:35.769Z,8.53
2023-05-24T22:07:07.208Z,10.93
2023-05-24T22:09:39.325Z,11.08
2023-05-24T22:12:11.568Z,11.38
2023-05-24T22:14:42.148Z,11.45
2023-05-24T22:17:14.136Z,10.68
2023-05-24T22:19:49.541Z,14.03
2023-05-24T22:22:22.475Z,12.58
2023-05-24T22:24:53.053Z,10.70
2023-05-24T22:27:24.245Z,9.63
2023-05-24T22:29:55.995Z,10.03
2023-05-24T22:32:26.569Z,12.65
2023-05-24T22:34:57.252Z,8.78
2023-05-24T22:37:27.835Z,12.40
2023-05-24T22:39:58.701Z,7.75
2023-05-24T22:42:29.153Z,11.30
2023-05-24T22:45:00.074Z,13.50
2023-05-24T22:47:32.432Z,13.85
2023-05-24T22:50:04.753Z,10.90
2023-05-24T22:52:35.381Z,16.23
2023-05-24T22:55:06.326Z,11.63
2023-05-24T22:57:36.930Z,13.98
2023-05-24T23:00:08.867Z,12.35
2023-05-24T23:02:39.676Z,10.23
2023-05-24T23:05:11.612Z,12.37
2023-05-24T23:07:42.366Z,13.05
2023-05-24T23:10:13.015Z,14.05
2023-05-24T23:12:44.636Z,14.30
2023-05-24T23:15:16.872Z,11.38
2023-05-24T23:17:48.244Z,11.40
2023-05-24T23:20:19.339Z,10.13
2023-05-24T23:22:50.041Z,12.60
2023-05-24T23:25:21.748Z,10.95
2023-05-24T23:27:53.727Z,10.48
2023-05-24T23:30:25.547Z,11.80
2023-05-24T23:32:56.728Z,13.88
2023-05-24T23:35:27.292Z,13.80
2023-05-24T23:37:58.102Z,10.85
2023-05-24T23:40:30.034Z,13.67
2023-05-24T23:43:01.578Z,9.78
2023-05-24T23:45:32.173Z,10.67
2023-05-24T23:48:03.175Z,11.12
2023-05-24T23:50:42.867Z,9.20
2023-05-24T23:53:07.443Z,11.03
2023-05-24T23:55:38.609Z,9.90
2023-05-24T23:58:11.968Z,10.23
